createdAt,value
2018-11-13T00:00:34.399Z,100.64
2018-11-13T00:03:58.131Z,100.54
2018-11-13T00:07:14.666Z,100.53
2018-11-13T00:10:30.600Z,100.53
2018-11-13T00:13:46.731Z,100.51
2018-11-13T00:17:02.627Z,100.36
2018-11-13T00:20:19.236Z,100.38
2018-11-13T00:23:35.258Z,100.14
2018-11-13T00:26:51.190Z,100.25
2018-11-13T00:30:07.523Z,100.35
2018-11-13T00:33:12.360Z,100.40
2018-11-13T00:36:36.068Z,100.44
2018-11-13T00:39:51.921Z,100.51
2018-11-13T00:43:08.426Z,100.29
2018-11-13T00:46:13.214Z,100.16
2018-11-13T00:49:18.019Z,100.02
2018-11-13T00:52:42.327Z,100.04
2018-11-13T00:55:47.242Z,100.05
2018-11-13T00:58:52.132Z,99.92
2018-11-13T01:02:15.835Z,99.53
2018-11-13T01:05:39.526Z,99.37
2018-11-13T01:08:56.035Z,99.43
2018-11-13T01:12:00.855Z,99.38
2018-11-13T01:15:24.960Z,99.50
2018-11-13T01:18:29.800Z,99.74
2018-11-13T01:21:35.171Z,99.85
2018-11-13T01:24:58.872Z,99.86
2018-11-13T01:28:22.562Z,99.90
2018-11-13T01:31:39.047Z,99.94
2018-11-13T01:34:55.349Z,99.63
2018-11-13T01:38:10.950Z,99.40
2018-11-13T01:41:27.541Z,99.24
2018-11-13T01:44:32.414Z,99.28
2018-11-13T01:47:56.112Z,99.40
2018-11-13T01:51:19.881Z,99.41
2018-11-13T01:54:35.605Z,99.60
2018-11-13T01:57:51.604Z,99.92
2018-11-13T02:01:07.371Z,100.04
2018-11-13T02:04:12.239Z,100.13
2018-11-13T02:07:35.960Z,100.45
2018-11-13T02:10:40.781Z,100.53
2018-11-13T02:14:04.454Z,100.49
2018-11-13T02:17:20.924Z,100.39
2018-11-13T02:20:37.157Z,100.44
2018-11-13T02:23:42.018Z,100.46
2018-11-13T02:26:46.799Z,100.31
2018-11-13T02:30:11.947Z,100.20
2018-11-13T02:33:16.711Z,100.14
2018-11-13T02:36:40.397Z,100.13
2018-11-13T02:39:56.809Z,100.12
2018-11-13T02:43:01.660Z,100.04
2018-11-13T02:46:25.423Z,100.13
2018-11-13T02:49:41.796Z,100.36
2018-11-13T02:52:57.883Z,100.40
2018-11-13T02:56:14.005Z,100.50
2018-11-13T02:59:30.554Z,100.70
2018-11-13T03:02:35.374Z,100.63
2018-11-13T03:05:59.047Z,100.56
2018-11-13T03:09:22.801Z,100.27
2018-11-13T03:12:38.989Z,100.32
2018-11-13T03:15:55.469Z,100.42
2018-11-13T03:19:11.378Z,100.53
2018-11-13T03:22:27.761Z,100.69
2018-11-13T03:25:43.999Z,100.95
2018-11-13T03:28:59.785Z,101.01
2018-11-13T03:32:05.498Z,100.93
2018-11-13T03:35:29.432Z,100.75
2018-11-13T03:38:53.168Z,100.79
2018-11-13T03:42:09.019Z,100.81
2018-11-13T03:45:14.255Z,101.04
2018-11-13T03:48:37.951Z,100.88
2018-11-13T03:52:01.696Z,100.78
2018-11-13T03:55:07.735Z,100.73
2018-11-13T03:58:12.559Z,100.67
2018-11-13T04:01:36.253Z,100.72
2018-11-13T04:04:59.968Z,100.93
2018-11-13T04:08:05.444Z,101.11
2018-11-13T04:11:29.129Z,101.15
2018-11-13T04:14:33.908Z,101.33
2018-11-13T04:17:57.566Z,101.33
2018-11-13T04:21:21.249Z,101.36
2018-11-13T04:24:37.012Z,101.41
2018-11-13T04:27:53.191Z,101.52
2018-11-13T04:31:08.971Z,101.52
2018-11-13T04:34:24.910Z,101.45
2018-11-13T04:37:40.926Z,101.26
2018-11-13T04:40:45.879Z,101.14
2018-11-13T04:43:50.696Z,101.17
2018-11-13T04:47:14.365Z,101.25
2018-11-13T04:50:30.988Z,101.17
2018-11-13T04:53:54.690Z,101.19
2018-11-13T04:57:18.433Z,101.18
2018-11-13T05:00:34.821Z,100.74
2018-11-13T05:03:39.606Z,100.72
2018-11-13T05:06:44.463Z,100.84
2018-11-13T05:10:09.356Z,100.90
2018-11-13T05:13:25.892Z,100.82
2018-11-13T05:16:30.766Z,100.82
2018-11-13T05:19:35.606Z,100.78
2018-11-13T05:22:40.376Z,100.59
2018-11-13T05:26:04.074Z,100.29
2018-11-13T05:29:09.075Z,100.02
2018-11-13T05:32:32.786Z,100.10
2018-11-13T05:35:56.483Z,100.12
2018-11-13T05:39:15.593Z,100.23
2018-11-13T05:42:31.920Z,100.01
2018-11-13T05:45:36.722Z,99.75
2018-11-13T05:48:41.530Z,99.56
2018-11-13T05:52:05.313Z,99.63
2018-11-13T05:55:28.952Z,99.46
2018-11-13T05:58:52.595Z,99.68
2018-11-13T06:02:09.450Z,99.70
2018-11-13T06:05:14.576Z,99.03
2018-11-13T06:08:38.348Z,98.98
2018-11-13T06:12:01.989Z,98.24
2018-11-13T06:15:07.462Z,98.24
2018-11-13T06:18:31.154Z,98.56
2018-11-13T06:21:54.869Z,98.53
2018-11-13T06:25:11.978Z,98.38
2018-11-13T06:28:28.055Z,98.56
2018-11-13T06:35:15.107Z,99.00
2018-11-13T06:38:38.820Z,99.13
2018-11-13T06:41:55.395Z,99.14
2018-11-13T06:45:00.330Z,99.11
2018-11-13T06:48:06.161Z,99.10
2018-11-13T06:51:29.804Z,98.91
2018-11-13T06:54:46.218Z,98.86
2018-11-13T06:58:02.541Z,98.63
2018-11-13T07:01:18.947Z,98.35
2018-11-13T07:04:35.134Z,98.16
2018-11-13T07:07:39.961Z,98.21
2018-11-13T07:11:03.667Z,97.82
2018-11-13T07:14:19.291Z,97.99
2018-11-13T07:17:35.165Z,97.33
2018-11-13T07:20:52.536Z,97.00
2018-11-13T07:24:07.360Z,96.50
2018-11-13T07:27:23.422Z,96.75
2018-11-13T07:30:39.460Z,96.66
2018-11-13T07:33:56.003Z,96.66
2018-11-13T07:37:12.470Z,96.22
2018-11-13T07:40:28.625Z,96.49
2018-11-13T07:43:44.909Z,96.66
2018-11-13T07:46:49.805Z,96.83
2018-11-13T07:50:14.058Z,96.60
2018-11-13T07:53:37.775Z,96.80
2018-11-13T07:56:54.195Z,96.61
2018-11-13T08:00:10.134Z,96.42
2018-11-13T08:03:28.655Z,96.31
2018-11-13T08:06:44.759Z,96.15
2018-11-13T08:10:01.241Z,95.82
2018-11-13T08:13:06.215Z,95.24
2018-11-13T08:16:29.846Z,94.70
2018-11-13T08:19:53.607Z,93.83
2018-11-13T08:23:09.547Z,93.00
2018-11-13T08:26:25.766Z,92.53
2018-11-13T08:29:42.075Z,91.84
2018-11-13T08:32:47.361Z,91.96
2018-11-13T08:35:52.180Z,91.75
2018-11-13T08:39:15.860Z,91.72
2018-11-13T08:42:20.716Z,90.48
2018-11-13T08:45:25.525Z,89.98
2018-11-13T08:48:49.271Z,89.01
2018-11-13T08:52:12.925Z,87.99
2018-11-13T08:55:36.624Z,87.66
2018-11-13T08:59:00.452Z,87.59
2018-11-13T09:02:06.080Z,87.78
2018-11-13T09:05:29.884Z,86.79
2018-11-13T09:08:46.316Z,86.83
2018-11-13T09:12:02.561Z,87.68
2018-11-13T09:15:22.008Z,87.18
2018-11-13T09:18:38.158Z,86.33
2018-11-13T09:21:54.222Z,86.52
2018-11-13T09:25:10.573Z,85.51
2018-11-13T09:28:26.006Z,85.30
2018-11-13T09:31:42.398Z,84.82
2018-11-13T09:34:59.063Z,84.70
2018-11-13T09:38:04.303Z,84.35
2018-11-13T09:41:27.976Z,83.71
2018-11-13T09:44:32.842Z,83.47
2018-11-13T09:47:56.477Z,83.17
2018-11-13T09:51:20.210Z,83.71
2018-11-13T09:54:36.375Z,83.69
2018-11-13T09:57:41.151Z,83.45
2018-11-13T10:01:04.739Z,83.96
2018-11-13T10:04:28.890Z,82.87
2018-11-13T10:07:44.948Z,82.75
2018-11-13T10:11:01.427Z,82.02
2018-11-13T10:14:06.509Z,81.43
2018-11-13T10:17:11.280Z,81.36
2018-11-13T10:20:17.533Z,81.81
2018-11-13T10:23:41.199Z,82.22
2018-11-13T10:26:57.605Z,83.18
2018-11-13T10:30:14.893Z,82.50
2018-11-13T10:33:19.694Z,82.30
2018-11-13T10:36:43.368Z,83.32
2018-11-13T10:40:07.299Z,83.32
2018-11-13T10:43:31.042Z,83.47
2018-11-13T10:46:55.100Z,81.70
2018-11-13T10:50:19.974Z,80.43
2018-11-13T10:53:43.624Z,80.18
2018-11-13T10:56:59.584Z,80.61
2018-11-13T11:00:34.515Z,79.85
2018-11-13T11:04:07.582Z,78.10
2018-11-13T11:07:23.804Z,78.25
2018-11-13T11:10:28.663Z,76.52
2018-11-13T11:13:52.516Z,76.53
2018-11-13T11:17:16.066Z,76.32
2018-11-13T11:20:31.974Z,77.45
2018-11-13T11:23:48.314Z,76.64
2018-11-13T11:27:04.318Z,76.72
2018-11-13T11:30:11.273Z,76.87
2018-11-13T11:33:34.978Z,77.07
2018-11-13T11:36:58.682Z,76.98
2018-11-13T11:40:14.604Z,76.41
2018-11-13T11:43:30.907Z,75.71
2018-11-13T11:46:36.404Z,76.63
2018-11-13T11:50:00.106Z,75.96
2018-11-13T11:53:16.692Z,73.85
2018-11-13T11:56:33.091Z,73.92
2018-11-13T11:59:37.948Z,74.72
2018-11-13T12:03:01.657Z,75.22
2018-11-13T12:06:06.550Z,75.45
2018-11-13T12:09:30.273Z,76.38
2018-11-13T12:12:35.088Z,75.85
2018-11-13T12:15:58.760Z,77.15
2018-11-13T12:19:15.277Z,75.45
2018-11-13T12:22:33.185Z,77.39
2018-11-13T12:25:46.765Z,76.42
2018-11-13T12:28:51.599Z,76.05
2018-11-13T12:31:56.403Z,77.13
2018-11-13T12:35:20.853Z,78.50
2018-11-13T12:38:37.580Z,81.44
2018-11-13T12:41:42.532Z,82.78
2018-11-13T12:44:47.398Z,83.30
2018-11-13T12:48:11.165Z,85.24
2018-11-13T12:51:34.950Z,87.85
2018-11-13T12:54:39.820Z,87.59
2018-11-13T12:58:03.477Z,86.80
2018-11-13T13:01:08.270Z,86.66
2018-11-13T13:04:13.090Z,87.69
2018-11-13T13:07:36.808Z,86.94
2018-11-13T13:11:00.473Z,87.75
2018-11-13T13:14:23.876Z,88.04
2018-11-13T13:17:47.588Z,88.62
2018-11-13T13:21:03.893Z,88.28
2018-11-13T13:24:08.721Z,88.29
2018-11-13T13:27:32.399Z,87.98
2018-11-13T13:30:48.809Z,88.33
2018-11-13T13:34:05.159Z,88.07
2018-11-13T13:37:20.753Z,87.91
2018-11-13T13:40:37.481Z,87.56
2018-11-13T13:43:54.074Z,88.22
2018-11-13T13:47:10.003Z,88.28
2018-11-13T13:50:14.810Z,88.14
2018-11-13T13:53:38.590Z,88.97
2018-11-13T13:57:02.284Z,88.74
2018-11-13T14:00:18.532Z,88.80
2018-11-13T14:03:35.000Z,88.38
2018-11-13T14:06:51.000Z,87.66
2018-11-13T14:10:07.153Z,87.56
2018-11-13T14:13:22.886Z,86.54
2018-11-13T14:16:27.774Z,85.98
2018-11-13T14:19:51.471Z,86.16
2018-11-13T14:23:15.207Z,86.52
2018-11-13T14:26:31.096Z,87.08
2018-11-13T14:29:37.140Z,87.60
2018-11-13T14:33:02.258Z,87.50
2018-11-13T14:36:25.928Z,87.37
2018-11-13T14:39:30.763Z,88.52
2018-11-13T14:42:54.453Z,87.69
2018-11-13T14:46:10.167Z,87.09
2018-11-13T14:49:26.195Z,87.88
2018-11-13T14:52:42.182Z,87.20
2018-11-13T14:55:58.038Z,86.46
2018-11-13T14:59:14.403Z,86.33
2018-11-13T15:02:30.327Z,86.33
2018-11-13T15:05:46.544Z,86.08
2018-11-13T15:08:51.449Z,87.10
2018-11-13T15:11:56.298Z,87.20
2018-11-13T15:15:20.220Z,87.62
2018-11-13T15:18:43.913Z,88.20
2018-11-13T15:21:59.873Z,88.04
2018-11-13T15:25:16.630Z,89.23
2018-11-13T15:28:21.552Z,89.40
2018-11-13T15:31:45.258Z,89.12
2018-11-13T15:35:01.222Z,90.04
2018-11-13T15:38:07.329Z,90.42
2018-11-13T15:41:31.015Z,90.62
2018-11-13T15:44:35.862Z,91.13
2018-11-13T15:47:59.239Z,91.71
2018-11-13T15:51:15.732Z,90.86
2018-11-13T15:54:31.715Z,90.78
2018-11-13T15:57:37.382Z,91.54
2018-11-13T16:01:01.134Z,91.78
2018-11-13T16:04:24.825Z,92.19
2018-11-13T16:07:40.630Z,92.56
2018-11-13T16:10:45.569Z,92.32
2018-11-13T16:13:50.389Z,91.92
2018-11-13T16:17:14.118Z,91.17
2018-11-13T16:20:37.785Z,91.10
2018-11-13T16:24:01.465Z,90.96
2018-11-13T16:27:07.115Z,91.29
2018-11-13T16:30:32.294Z,90.98
2018-11-13T16:33:37.163Z,91.45
2018-11-13T16:37:00.996Z,91.54
2018-11-13T16:40:28.765Z,89.97
2018-11-13T16:43:45.440Z,90.26
2018-11-13T16:47:01.855Z,90.86
2018-11-13T16:50:14.477Z,91.14
2018-11-13T16:53:58.322Z,91.79
2018-11-13T16:57:22.409Z,91.87
2018-11-13T17:00:37.805Z,91.83
2018-11-13T17:03:54.292Z,92.26
2018-11-13T17:07:10.682Z,92.85
2018-11-13T17:10:16.923Z,92.87
2018-11-13T17:13:40.623Z,93.12
2018-11-13T17:16:45.560Z,92.58
2018-11-13T17:20:09.763Z,92.15
2018-11-13T17:23:33.467Z,91.62
2018-11-13T17:26:49.483Z,91.42
2018-11-13T17:30:05.424Z,91.30
2018-11-13T17:33:11.268Z,91.29
2018-11-13T17:36:17.089Z,91.61
2018-11-13T17:39:33.646Z,91.42
2018-11-13T17:42:50.122Z,91.34
2018-11-13T17:46:06.661Z,91.16
2018-11-13T17:49:22.515Z,91.26
2018-11-13T17:52:38.569Z,92.43
2018-11-13T17:55:54.775Z,92.00
2018-11-13T17:59:11.265Z,91.55
2018-11-13T18:02:27.654Z,91.44
2018-11-13T18:05:32.879Z,91.02
2018-11-13T18:08:56.558Z,91.20
2018-11-13T18:12:20.211Z,91.58
2018-11-13T18:15:36.506Z,91.78
2018-11-13T18:18:52.833Z,90.44
2018-11-13T18:21:57.792Z,91.12
2018-11-13T18:25:21.323Z,91.05
2018-11-13T18:28:37.521Z,91.34
2018-11-13T18:31:53.870Z,92.29
2018-11-13T18:34:58.918Z,92.87
2018-11-13T18:38:22.679Z,92.32
2018-11-13T18:41:27.688Z,91.69
2018-11-13T18:44:32.563Z,91.36
2018-11-13T18:47:37.662Z,90.28
2018-11-13T18:51:01.375Z,90.31
2018-11-13T18:54:06.401Z,90.61
2018-11-13T18:57:30.093Z,90.95
2018-11-13T19:00:46.034Z,90.70
2018-11-13T19:04:01.866Z,90.88
2018-11-13T19:07:26.483Z,91.16
2018-11-13T19:10:50.976Z,91.11
2018-11-13T19:14:07.390Z,91.43
2018-11-13T19:17:23.571Z,91.86
2018-11-13T19:20:39.862Z,92.11
2018-11-13T19:23:55.625Z,92.77
2018-11-13T19:27:11.712Z,91.65
2018-11-13T19:30:17.498Z,93.00
2018-11-13T19:33:41.404Z,93.93
2018-11-13T19:40:40.315Z,93.34
2018-11-13T19:43:45.114Z,92.64
2018-11-13T19:47:08.813Z,93.00
2018-11-13T19:50:33.898Z,93.64
2018-11-13T19:53:49.805Z,94.35
2018-11-13T19:56:54.690Z,94.04
2018-11-13T19:59:59.622Z,92.62
2018-11-13T20:03:23.463Z,93.38
2018-11-13T20:06:28.477Z,93.61
2018-11-13T20:16:45.602Z,92.96
2018-11-13T20:20:13.594Z,93.54
2018-11-13T20:23:18.914Z,93.70
2018-11-13T20:26:42.643Z,94.38
2018-11-13T20:29:58.632Z,94.03
2018-11-13T20:33:15.104Z,94.65
2018-11-13T20:36:31.487Z,94.26
2018-11-13T20:39:47.763Z,93.80
2018-11-13T20:43:04.967Z,94.38
2018-11-13T20:46:20.816Z,94.48
2018-11-13T20:49:37.243Z,94.61
2018-11-13T20:52:53.950Z,94.64
2018-11-13T20:56:09.997Z,94.29
2018-11-13T20:59:26.230Z,94.18
2018-11-13T21:02:31.230Z,94.26
2018-11-13T21:05:54.819Z,93.94
2018-11-13T21:09:11.056Z,94.28
2018-11-13T21:12:27.022Z,94.55
2018-11-13T21:15:43.354Z,94.64
2018-11-13T21:18:48.580Z,95.25
2018-11-13T21:22:12.272Z,94.61
2018-11-13T21:25:18.635Z,94.50
2018-11-13T21:28:42.188Z,94.44
2018-11-13T21:31:47.060Z,93.77
2018-11-13T21:34:51.940Z,93.65
2018-11-13T21:37:57.544Z,93.67
2018-11-13T21:41:21.253Z,93.64
2018-11-13T21:44:45.002Z,93.74
2018-11-13T21:47:49.898Z,94.28
2018-11-13T21:50:54.738Z,94.83
2018-11-13T21:54:20.973Z,95.02
2018-11-13T21:57:44.798Z,94.93
2018-11-13T22:00:49.855Z,94.73
2018-11-13T22:03:55.074Z,94.59
2018-11-13T22:07:18.774Z,95.03
2018-11-13T22:10:42.475Z,95.07
2018-11-13T22:13:58.192Z,95.58
2018-11-13T22:17:02.999Z,95.26
2018-11-13T22:20:08.955Z,95.47
2018-11-13T22:23:32.753Z,95.99
2018-11-13T22:26:37.912Z,96.85
2018-11-13T22:30:02.032Z,96.38
2018-11-13T22:33:25.323Z,96.44
2018-11-13T22:36:30.212Z,96.83
2018-11-13T22:39:53.900Z,96.72
2018-11-13T22:43:17.531Z,96.94
2018-11-13T22:46:22.376Z,97.24
2018-11-13T22:49:46.083Z,97.41
2018-11-13T22:52:51.115Z,97.72
2018-11-13T22:55:55.914Z,97.96
2018-11-13T22:59:00.749Z,97.69
2018-11-13T23:02:24.514Z,97.94
2018-11-13T23:05:29.383Z,97.87
2018-11-13T23:08:52.780Z,97.90
2018-11-13T23:11:57.574Z,98.02
2018-11-13T23:15:02.500Z,97.90
2018-11-13T23:18:28.207Z,97.91
2018-11-13T23:21:44.724Z,97.75
2018-11-13T23:25:00.821Z,97.89
2018-11-13T23:28:17.319Z,98.11
2018-11-13T23:31:33.454Z,98.09
2018-11-13T23:34:38.308Z,98.28
2018-11-13T23:38:02.562Z,98.72
2018-11-13T23:41:25.783Z,98.66
2018-11-13T23:44:42.453Z,98.93
2018-11-13T23:47:58.750Z,98.89
2018-11-13T23:51:04.861Z,99.50
2018-11-13T23:54:09.736Z,99.72
2018-11-13T23:57:33.388Z,99.85
